createdAt,value
2022-07-31T00:01:14.135Z,91.87
2022-07-31T00:02:47.077Z,91.71
2022-07-31T00:04:19.229Z,91.80
2022-07-31T00:05:51.281Z,92.35
2022-07-31T00:07:23.445Z,92.45
2022-07-31T00:08:55.477Z,92.19
2022-07-31T00:10:27.567Z,92.46
2022-07-31T00:11:59.649Z,92.11
2022-07-31T00:13:56.798Z,92.22
2022-07-31T00:15:23.842Z,92.18
2022-07-31T00:16:56.081Z,92.32
2022-07-31T00:18:28.129Z,92.52
2022-07-31T00:20:00.297Z,92.56
2022-07-31T00:21:32.391Z,92.85
2022-07-31T00:23:04.415Z,92.71
2022-07-31T00:24:36.399Z,92.77
2022-07-31T00:26:08.454Z,93.18
2022-07-31T00:27:41.487Z,92.96
2022-07-31T00:29:16.100Z,92.80
2022-07-31T00:30:48.468Z,92.35
2022-07-31T00:32:21.715Z,92.38
2022-07-31T00:33:53.644Z,92.28
2022-07-31T00:35:25.707Z,92.32
2022-07-31T00:36:58.013Z,91.85
2022-07-31T00:38:30.303Z,92.01
2022-07-31T00:40:02.541Z,91.85
2022-07-31T00:41:44.061Z,92.43
2022-07-31T00:43:16.611Z,92.28
2022-07-31T00:44:48.720Z,92.54
2022-07-31T00:46:20.721Z,91.71
2022-07-31T00:47:55.903Z,91.77
2022-07-31T00:49:37.282Z,91.61
2022-07-31T00:51:10.542Z,91.65
2022-07-31T00:54:22.576Z,92.29
2022-07-31T00:55:55.232Z,92.13
2022-07-31T00:57:27.293Z,92.57
2022-07-31T00:59:01.819Z,92.43
2022-07-31T01:00:34.014Z,91.99
2022-07-31T01:02:06.314Z,92.05
2022-07-31T01:03:38.398Z,92.17
2022-07-31T01:05:10.480Z,92.13
2022-07-31T01:06:42.887Z,92.49
2022-07-31T01:08:15.636Z,92.04
2022-07-31T01:09:49.465Z,92.02
2022-07-31T01:11:31.213Z,92.14
2022-07-31T01:13:05.962Z,92.38
2022-07-31T01:14:41.278Z,92.25
2022-07-31T01:16:13.840Z,92.71
2022-07-31T01:17:48.137Z,92.56
2022-07-31T01:19:46.663Z,92.51
2022-07-31T01:21:22.188Z,92.20
2022-07-31T01:23:17.534Z,92.31
2022-07-31T01:25:12.723Z,92.27
2022-07-31T01:27:00.238Z,92.07
2022-07-31T01:28:53.172Z,92.07
2022-07-31T01:30:31.044Z,92.07
2022-07-31T01:32:09.453Z,92.10
2022-07-31T01:33:47.909Z,92.13
2022-07-31T01:35:33.657Z,92.13
2022-07-31T01:37:30.881Z,91.90
2022-07-31T01:39:04.033Z,91.93
2022-07-31T01:40:40.590Z,91.81
2022-07-31T01:42:14.945Z,91.86
2022-07-31T01:43:48.743Z,91.67
2022-07-31T01:45:21.711Z,91.42
2022-07-31T01:46:58.976Z,91.46
2022-07-31T01:48:35.455Z,91.46
2022-07-31T01:50:09.151Z,91.43
2022-07-31T01:52:02.850Z,91.11
2022-07-31T01:53:41.498Z,91.14
2022-07-31T01:55:15.448Z,91.02
2022-07-31T01:56:49.309Z,91.31
2022-07-31T01:58:23.144Z,91.08
2022-07-31T01:59:57.290Z,91.41
2022-07-31T02:01:29.779Z,91.07
2022-07-31T02:03:09.830Z,90.90
2022-07-31T02:04:42.716Z,91.29
2022-07-31T02:06:16.640Z,90.97
2022-07-31T02:07:49.513Z,90.99
2022-07-31T02:09:22.285Z,90.89
2022-07-31T02:10:55.163Z,90.84
2022-07-31T02:12:32.017Z,90.97
2022-07-31T02:14:06.208Z,90.74
2022-07-31T02:15:38.858Z,90.94
2022-07-31T02:17:12.385Z,91.30
2022-07-31T02:18:44.418Z,91.38
2022-07-31T02:20:16.605Z,91.06
2022-07-31T02:21:48.627Z,91.16
2022-07-31T02:23:20.856Z,90.76
2022-07-31T02:24:52.937Z,90.56
2022-07-31T02:26:26.401Z,90.25
2022-07-31T02:27:59.374Z,90.42
2022-07-31T02:29:32.899Z,90.38
2022-07-31T02:31:07.031Z,90.44
2022-07-31T02:32:39.861Z,90.53
2022-07-31T02:34:14.246Z,90.79
2022-07-31T02:35:49.298Z,90.72
2022-07-31T02:37:22.737Z,91.09
2022-07-31T02:38:56.447Z,90.96
2022-07-31T02:40:28.927Z,90.94
2022-07-31T02:42:02.116Z,90.70
2022-07-31T02:43:35.754Z,90.73
2022-07-31T02:45:11.221Z,90.32
2022-07-31T02:46:45.090Z,90.77
2022-07-31T02:48:17.344Z,90.30
2022-07-31T02:49:50.052Z,90.13
2022-07-31T02:51:23.083Z,89.56
2022-07-31T02:52:56.093Z,89.60
2022-07-31T02:54:28.341Z,89.73
2022-07-31T02:56:02.042Z,89.52
2022-07-31T02:57:34.115Z,89.63
2022-07-31T02:59:07.406Z,89.93
2022-07-31T03:00:39.399Z,89.40
2022-07-31T03:02:11.658Z,89.19
2022-07-31T03:03:43.766Z,89.06
2022-07-31T03:05:16.605Z,89.60
2022-07-31T03:06:51.361Z,89.83
2022-07-31T03:08:23.482Z,90.33
2022-07-31T03:09:57.995Z,90.35
2022-07-31T03:11:30.100Z,90.23
2022-07-31T03:13:03.903Z,90.32
2022-07-31T03:14:36.289Z,90.47
2022-07-31T03:16:11.755Z,90.55
2022-07-31T03:17:45.120Z,90.48
2022-07-31T03:19:20.191Z,90.92
2022-07-31T03:20:55.574Z,91.28
2022-07-31T03:22:27.667Z,91.77
2022-07-31T03:23:59.990Z,91.53
2022-07-31T03:25:33.775Z,91.49
2022-07-31T03:27:05.836Z,91.57
2022-07-31T03:28:38.051Z,91.36
2022-07-31T03:30:17.214Z,91.30
2022-07-31T03:31:49.336Z,90.97
2022-07-31T03:33:22.505Z,90.92
2022-07-31T03:34:54.542Z,90.49
2022-07-31T03:36:27.572Z,90.98
2022-07-31T03:37:59.637Z,90.54
2022-07-31T03:39:31.870Z,90.37
2022-07-31T03:41:03.950Z,90.16
2022-07-31T03:42:36.005Z,89.98
2022-07-31T03:44:08.839Z,89.86
2022-07-31T03:45:41.129Z,90.17
2022-07-31T03:47:13.241Z,90.26
2022-07-31T03:48:52.573Z,90.62
2022-07-31T03:50:25.534Z,90.50
2022-07-31T03:51:57.681Z,90.82
2022-07-31T03:53:29.813Z,90.76
2022-07-31T03:55:02.216Z,90.90
2022-07-31T03:56:35.095Z,90.64
2022-07-31T03:58:07.717Z,90.72
2022-07-31T03:59:48.233Z,91.05
2022-07-31T04:01:21.882Z,90.62
2022-07-31T04:02:58.541Z,90.96
2022-07-31T04:04:30.765Z,90.92
2022-07-31T04:06:02.899Z,90.32
2022-07-31T04:07:34.964Z,90.48
2022-07-31T04:09:15.592Z,90.35
2022-07-31T04:10:51.841Z,90.59
2022-07-31T04:12:23.915Z,90.54
2022-07-31T04:13:56.363Z,90.40
2022-07-31T04:15:28.561Z,90.91
2022-07-31T04:17:00.590Z,90.85
2022-07-31T04:18:32.727Z,90.92
2022-07-31T04:20:05.867Z,91.24
2022-07-31T04:21:38.078Z,91.29
2022-07-31T04:23:10.132Z,91.52
2022-07-31T04:24:44.719Z,91.54
2022-07-31T04:26:20.057Z,91.51
2022-07-31T04:27:58.580Z,91.32
2022-07-31T04:29:30.876Z,91.51
2022-07-31T04:31:02.957Z,92.10
2022-07-31T04:32:36.351Z,92.33
2022-07-31T04:34:08.745Z,92.10
2022-07-31T04:35:42.454Z,92.27
2022-07-31T04:37:14.509Z,92.67
2022-07-31T04:38:46.932Z,92.97
2022-07-31T04:40:19.221Z,93.09
2022-07-31T04:41:51.984Z,92.97
2022-07-31T04:43:24.430Z,92.50
2022-07-31T04:44:56.497Z,92.63
2022-07-31T04:46:28.808Z,93.07
2022-07-31T04:48:00.946Z,92.74
2022-07-31T04:49:33.452Z,93.00
2022-07-31T04:51:05.518Z,92.55
2022-07-31T04:52:37.595Z,92.67
2022-07-31T04:54:10.614Z,92.80
2022-07-31T04:55:42.736Z,92.64
2022-07-31T04:57:17.404Z,92.53
2022-07-31T04:58:52.204Z,93.15
2022-07-31T05:00:25.205Z,92.57
2022-07-31T05:01:57.330Z,92.83
2022-07-31T05:03:29.591Z,93.15
2022-07-31T05:05:01.910Z,93.11
2022-07-31T05:06:37.962Z,92.72
2022-07-31T05:08:10.311Z,93.30
2022-07-31T05:09:42.358Z,92.23
2022-07-31T05:11:23.806Z,92.36
2022-07-31T05:12:55.959Z,91.88
2022-07-31T05:14:28.370Z,91.49
2022-07-31T05:16:00.544Z,92.30
2022-07-31T05:17:32.561Z,92.69
2022-07-31T05:19:05.796Z,91.30
2022-07-31T05:20:46.129Z,91.90
2022-07-31T05:22:18.883Z,93.15
2022-07-31T05:23:51.598Z,92.65
2022-07-31T05:25:23.648Z,92.36
2022-07-31T05:26:55.929Z,91.46
2022-07-31T05:28:29.936Z,91.49
2022-07-31T05:30:02.794Z,91.33
2022-07-31T05:31:34.986Z,90.27
2022-07-31T05:33:07.238Z,90.64
2022-07-31T05:34:39.837Z,89.81
2022-07-31T05:36:12.645Z,89.18
2022-07-31T05:39:18.459Z,89.95
2022-07-31T05:40:50.712Z,89.24
2022-07-31T05:42:22.905Z,88.67
2022-07-31T05:43:55.075Z,88.85
2022-07-31T05:45:27.192Z,87.36
2022-07-31T05:48:30.767Z,88.37
2022-07-31T05:50:04.921Z,87.79
2022-07-31T05:51:37.784Z,87.82
2022-07-31T05:53:15.591Z,87.51
2022-07-31T05:54:48.151Z,87.38
2022-07-31T05:56:20.214Z,87.10
2022-07-31T05:57:52.705Z,86.63
2022-07-31T05:59:25.101Z,87.82
2022-07-31T06:00:57.295Z,84.70
2022-07-31T06:02:29.336Z,84.84
2022-07-31T06:04:02.917Z,84.96
2022-07-31T06:05:35.292Z,85.46
2022-07-31T06:07:07.511Z,85.26
2022-07-31T06:08:39.996Z,84.31
2022-07-31T06:10:12.467Z,79.16
2022-07-31T06:11:44.796Z,80.16
2022-07-31T06:13:17.198Z,79.69
2022-07-31T06:14:49.952Z,80.29
2022-07-31T06:16:21.994Z,80.45
2022-07-31T06:17:54.110Z,80.51
2022-07-31T06:19:26.287Z,80.58
2022-07-31T06:20:58.405Z,79.08
2022-07-31T06:22:30.746Z,77.37
2022-07-31T06:24:02.836Z,75.91
2022-07-31T06:25:38.845Z,73.92
2022-07-31T06:27:20.805Z,69.77
2022-07-31T06:29:04.889Z,69.69
2022-07-31T06:30:37.550Z,69.76
2022-07-31T06:32:09.850Z,69.63
2022-07-31T06:33:42.136Z,68.56
2022-07-31T06:35:20.481Z,68.50
2022-07-31T06:36:52.922Z,69.57
2022-07-31T06:38:25.176Z,69.30
2022-07-31T06:39:57.453Z,69.00
2022-07-31T06:43:27.423Z,71.02
2022-07-31T06:45:00.081Z,69.73
2022-07-31T06:46:32.634Z,69.81
2022-07-31T06:48:05.001Z,70.41
2022-07-31T06:49:37.386Z,70.35
2022-07-31T06:51:30.235Z,70.54
2022-07-31T06:53:03.847Z,67.20
2022-07-31T06:54:36.259Z,67.92
2022-07-31T06:56:08.716Z,66.29
2022-07-31T06:57:41.299Z,66.99
2022-07-31T06:59:13.604Z,67.17
2022-07-31T07:01:05.955Z,65.81
2022-07-31T07:02:38.286Z,65.60
2022-07-31T07:04:10.865Z,66.03
2022-07-31T07:05:45.469Z,64.28
2022-07-31T07:07:18.010Z,64.77
2022-07-31T07:08:50.801Z,65.28
2022-07-31T07:10:23.283Z,66.12
2022-07-31T07:11:55.872Z,66.39
2022-07-31T07:13:45.072Z,64.93
2022-07-31T07:15:18.818Z,65.09
2022-07-31T07:16:51.217Z,65.10
2022-07-31T07:18:23.475Z,63.80
2022-07-31T07:19:56.156Z,63.09
2022-07-31T07:21:28.465Z,65.62
2022-07-31T07:23:00.782Z,64.33
2022-07-31T07:24:33.375Z,63.63
2022-07-31T07:26:06.708Z,64.88
2022-07-31T07:27:39.166Z,64.69
2022-07-31T07:29:11.690Z,65.04
2022-07-31T07:30:44.497Z,64.98
2022-07-31T07:32:17.300Z,65.41
2022-07-31T07:33:51.912Z,65.30
2022-07-31T07:35:24.170Z,65.15
2022-07-31T07:36:56.460Z,65.38
2022-07-31T07:38:28.753Z,65.88
2022-07-31T07:40:02.461Z,65.43
2022-07-31T07:41:36.173Z,64.46
2022-07-31T07:44:40.942Z,64.44
2022-07-31T07:46:13.298Z,64.78
2022-07-31T07:48:05.418Z,63.72
2022-07-31T07:49:38.321Z,64.50
2022-07-31T07:51:10.657Z,64.08
2022-07-31T07:52:44.040Z,63.80
2022-07-31T07:54:16.981Z,64.88
2022-07-31T07:55:49.447Z,64.28
2022-07-31T07:57:22.344Z,65.19
2022-07-31T07:58:54.625Z,64.36
2022-07-31T08:00:27.001Z,64.83
2022-07-31T08:01:59.313Z,65.53
2022-07-31T08:03:49.288Z,65.72
2022-07-31T08:05:23.898Z,66.18
2022-07-31T08:06:56.383Z,65.88
2022-07-31T08:08:28.755Z,65.42
2022-07-31T08:10:01.266Z,66.01
2022-07-31T08:11:33.512Z,65.66
2022-07-31T08:13:06.195Z,65.32
2022-07-31T08:14:38.674Z,65.59
2022-07-31T08:16:11.068Z,66.37
2022-07-31T08:17:43.439Z,66.12
2022-07-31T08:19:15.885Z,65.84
2022-07-31T08:20:50.865Z,65.68
2022-07-31T08:22:23.436Z,64.88
2022-07-31T08:23:55.875Z,64.74
2022-07-31T08:25:31.962Z,64.95
2022-07-31T08:27:23.438Z,65.41
2022-07-31T08:29:12.052Z,64.25
2022-07-31T08:30:44.581Z,64.65
2022-07-31T08:32:17.918Z,63.34
2022-07-31T08:33:50.272Z,64.02
2022-07-31T08:35:22.597Z,62.91
2022-07-31T08:36:54.970Z,63.39
2022-07-31T08:38:27.295Z,65.61
2022-07-31T08:40:00.248Z,63.62
2022-07-31T08:41:39.117Z,63.62
2022-07-31T08:44:02.129Z,64.48
2022-07-31T08:45:09.389Z,64.55
2022-07-31T08:46:42.276Z,64.64
2022-07-31T08:48:15.310Z,64.24
2022-07-31T08:49:49.752Z,64.49
2022-07-31T08:51:24.438Z,62.47
2022-07-31T08:52:57.774Z,61.88
2022-07-31T08:54:32.369Z,62.27
2022-07-31T08:56:06.500Z,62.44
2022-07-31T08:57:39.598Z,61.89
2022-07-31T08:59:12.094Z,60.68
2022-07-31T09:00:44.641Z,61.71
2022-07-31T09:02:17.406Z,61.61
2022-07-31T09:03:49.764Z,61.63
2022-07-31T09:05:22.442Z,59.68
2022-07-31T09:06:55.240Z,59.63
2022-07-31T09:08:27.641Z,59.79
2022-07-31T09:10:00.172Z,59.09
2022-07-31T09:11:32.655Z,59.42
2022-07-31T09:13:14.732Z,59.91
2022-07-31T09:14:49.891Z,58.21
2022-07-31T09:16:24.316Z,60.21
2022-07-31T09:18:03.329Z,59.50
2022-07-31T09:19:52.200Z,61.10
2022-07-31T09:21:27.028Z,58.67
2022-07-31T09:23:07.941Z,57.90
2022-07-31T09:24:43.214Z,57.56
2022-07-31T09:26:15.803Z,58.06
2022-07-31T09:27:49.235Z,57.92
2022-07-31T09:29:36.271Z,57.08
2022-07-31T09:31:10.315Z,57.57
2022-07-31T09:32:43.687Z,57.65
2022-07-31T09:34:26.696Z,57.50
2022-07-31T09:36:01.694Z,55.81
2022-07-31T09:37:33.934Z,54.94
2022-07-31T09:39:15.116Z,55.70
2022-07-31T09:41:56.314Z,53.96
2022-07-31T09:43:15.721Z,53.34
2022-07-31T09:44:49.024Z,53.44
2022-07-31T09:46:21.408Z,53.43
2022-07-31T09:48:06.885Z,53.42
2022-07-31T09:49:39.420Z,54.19
2022-07-31T09:51:12.250Z,53.43
2022-07-31T09:52:44.909Z,52.26
2022-07-31T09:54:25.987Z,51.38
2022-07-31T09:55:58.792Z,54.58
2022-07-31T09:57:31.299Z,54.64
2022-07-31T09:59:03.971Z,53.97
2022-07-31T10:00:37.840Z,52.33
2022-07-31T10:02:14.279Z,54.64
2022-07-31T10:03:50.686Z,54.70
2022-07-31T10:05:26.970Z,52.70
2022-07-31T10:06:59.646Z,52.43
2022-07-31T10:08:36.046Z,52.98
2022-07-31T10:10:09.479Z,51.46
2022-07-31T10:11:42.924Z,51.80
2022-07-31T10:13:16.863Z,51.08
2022-07-31T10:14:51.760Z,52.47
2022-07-31T10:16:26.105Z,51.21
2022-07-31T10:17:58.801Z,52.78
2022-07-31T10:19:37.042Z,49.69
2022-07-31T10:21:12.100Z,51.02
2022-07-31T10:22:54.785Z,52.29
2022-07-31T10:24:30.338Z,50.84
2022-07-31T10:26:03.508Z,50.35
2022-07-31T10:27:39.410Z,49.49
2022-07-31T10:29:12.246Z,51.75
2022-07-31T10:30:46.789Z,51.14
2022-07-31T10:32:19.169Z,50.58
2022-07-31T10:33:52.902Z,46.85
2022-07-31T10:35:25.813Z,48.05
2022-07-31T10:37:03.081Z,47.62
2022-07-31T10:38:51.895Z,49.29
2022-07-31T10:40:30.236Z,49.41
2022-07-31T10:42:34.651Z,48.64
2022-07-31T10:44:27.190Z,47.68
2022-07-31T10:45:59.638Z,47.98
2022-07-31T10:47:32.261Z,47.09
2022-07-31T10:49:08.933Z,47.05
2022-07-31T10:50:41.529Z,47.88
2022-07-31T10:52:13.831Z,46.97
2022-07-31T10:54:01.477Z,47.54
2022-07-31T10:55:35.783Z,47.89
2022-07-31T10:57:08.137Z,46.51
2022-07-31T10:58:55.817Z,47.54
2022-07-31T11:00:29.673Z,47.21
2022-07-31T11:02:02.452Z,46.28
2022-07-31T11:03:48.934Z,45.99
2022-07-31T11:05:28.255Z,46.69
2022-07-31T11:07:00.679Z,47.96
2022-07-31T11:08:46.014Z,49.17
2022-07-31T11:10:22.497Z,49.20
2022-07-31T11:11:55.753Z,49.20
2022-07-31T11:13:36.666Z,48.80
2022-07-31T11:15:23.853Z,48.03
2022-07-31T11:16:59.313Z,48.17
2022-07-31T11:18:34.442Z,48.31
2022-07-31T11:20:08.038Z,47.83
2022-07-31T11:21:42.713Z,47.47
2022-07-31T11:23:18.002Z,48.88
2022-07-31T11:24:56.496Z,48.48
2022-07-31T11:26:32.805Z,47.83
2022-07-31T11:28:13.056Z,47.13
2022-07-31T11:30:01.280Z,46.39
2022-07-31T11:31:35.715Z,46.37
2022-07-31T11:33:08.001Z,46.80
2022-07-31T11:34:54.448Z,47.47
2022-07-31T11:36:27.493Z,47.06
2022-07-31T11:37:59.987Z,47.54
2022-07-31T11:39:36.962Z,47.69
2022-07-31T11:41:10.214Z,47.52
2022-07-31T11:42:52.530Z,48.15
2022-07-31T11:44:32.412Z,47.42
2022-07-31T11:46:05.884Z,47.58
2022-07-31T11:48:11.700Z,46.67
2022-07-31T11:49:47.807Z,47.40
2022-07-31T11:51:22.528Z,46.42
2022-07-31T11:53:02.370Z,45.78
2022-07-31T11:54:35.396Z,44.96
2022-07-31T11:56:07.416Z,44.36
2022-07-31T11:57:52.562Z,44.21
2022-07-31T11:59:45.368Z,44.15
2022-07-31T12:01:19.624Z,46.52
2022-07-31T12:02:51.930Z,45.11
2022-07-31T12:04:24.765Z,43.91
2022-07-31T12:05:57.601Z,44.67
2022-07-31T12:07:29.999Z,45.42
2022-07-31T12:09:02.429Z,44.91
2022-07-31T12:10:34.662Z,44.18
2022-07-31T12:12:08.129Z,44.37
2022-07-31T12:13:40.603Z,45.04
2022-07-31T12:15:16.537Z,44.96
2022-07-31T12:16:48.841Z,44.37
2022-07-31T12:18:21.282Z,43.96
2022-07-31T12:19:57.727Z,43.33
2022-07-31T12:21:35.985Z,43.14
2022-07-31T12:23:08.386Z,44.77
2022-07-31T12:25:07.315Z,44.84
2022-07-31T12:26:44.912Z,44.13
2022-07-31T12:28:17.930Z,44.47
2022-07-31T12:29:50.082Z,45.03
2022-07-31T12:31:22.355Z,44.25
2022-07-31T12:33:05.702Z,44.66
2022-07-31T12:34:39.927Z,44.08
2022-07-31T12:36:16.199Z,43.97
2022-07-31T12:37:50.008Z,42.77
2022-07-31T12:39:22.470Z,43.59
2022-07-31T12:41:05.344Z,44.46
2022-07-31T12:42:41.901Z,44.60
2022-07-31T12:44:14.989Z,45.47
2022-07-31T12:45:54.731Z,43.08
2022-07-31T12:47:28.003Z,43.76
2022-07-31T12:49:00.227Z,43.18
2022-07-31T12:50:34.199Z,42.98
2022-07-31T12:52:06.434Z,42.45
2022-07-31T12:53:38.867Z,43.69
2022-07-31T12:55:11.327Z,44.11
2022-07-31T12:56:44.191Z,42.13
2022-07-31T12:58:16.697Z,42.35
2022-07-31T12:59:49.065Z,43.92
2022-07-31T13:01:21.489Z,41.96
2022-07-31T13:02:55.228Z,43.07
2022-07-31T13:04:27.679Z,42.30
2022-07-31T13:05:59.876Z,41.63
2022-07-31T13:07:32.418Z,40.53
2022-07-31T13:09:05.210Z,41.56
2022-07-31T13:10:37.739Z,41.17
2022-07-31T13:12:13.940Z,41.20
2022-07-31T13:13:46.487Z,40.73
2022-07-31T13:15:21.031Z,41.36
2022-07-31T13:16:55.792Z,41.23
2022-07-31T13:18:30.368Z,40.18
2022-07-31T13:20:02.725Z,41.31
2022-07-31T13:21:48.411Z,40.48
2022-07-31T13:23:22.237Z,40.48
2022-07-31T13:24:54.459Z,39.70
2022-07-31T13:26:29.498Z,39.70
2022-07-31T13:28:01.806Z,39.25
2022-07-31T13:29:34.489Z,39.34
2022-07-31T13:31:06.839Z,38.80
2022-07-31T13:32:39.056Z,38.45
2022-07-31T13:34:11.607Z,39.42
2022-07-31T13:35:43.955Z,38.34
2022-07-31T13:37:16.461Z,37.62
2022-07-31T13:38:48.766Z,38.10
2022-07-31T13:40:41.022Z,39.03
2022-07-31T13:42:13.382Z,39.63
2022-07-31T13:44:00.410Z,40.03
2022-07-31T13:45:33.065Z,38.82
2022-07-31T13:47:05.776Z,37.47
2022-07-31T13:48:38.289Z,39.17
2022-07-31T13:50:10.475Z,39.04
2022-07-31T13:51:42.787Z,39.12
2022-07-31T13:53:15.190Z,39.27
2022-07-31T13:54:47.639Z,38.27
2022-07-31T13:56:38.894Z,37.33
2022-07-31T13:58:12.890Z,37.25
2022-07-31T13:59:45.535Z,37.52
2022-07-31T14:01:17.965Z,38.39
2022-07-31T14:02:50.620Z,38.28
2022-07-31T14:04:23.948Z,37.94
2022-07-31T14:05:56.365Z,37.58
2022-07-31T14:07:45.114Z,37.81
2022-07-31T14:09:18.262Z,37.43
2022-07-31T14:10:50.879Z,37.30
2022-07-31T14:12:24.662Z,38.64
2022-07-31T14:13:56.916Z,37.98
2022-07-31T14:15:34.797Z,37.54
2022-07-31T14:17:07.185Z,37.07
2022-07-31T14:18:39.622Z,37.42
2022-07-31T14:20:12.765Z,36.79
2022-07-31T14:21:55.991Z,37.05
2022-07-31T14:23:35.198Z,36.56
2022-07-31T14:25:10.558Z,35.75
2022-07-31T14:26:43.763Z,35.48
2022-07-31T14:28:16.271Z,35.43
2022-07-31T14:29:48.986Z,35.30
2022-07-31T14:31:21.460Z,35.46
2022-07-31T14:32:55.166Z,35.52
2022-07-31T14:34:35.238Z,36.16
2022-07-31T14:36:08.382Z,36.26
2022-07-31T14:37:42.259Z,35.49
2022-07-31T14:39:14.768Z,35.87
2022-07-31T14:40:47.099Z,37.00
2022-07-31T14:42:22.388Z,35.85
2022-07-31T14:43:57.972Z,35.76
2022-07-31T14:45:32.945Z,36.46
2022-07-31T14:47:23.962Z,36.44
2022-07-31T14:48:56.502Z,38.05
2022-07-31T14:50:28.801Z,36.90
2022-07-31T14:52:01.504Z,36.15
2022-07-31T14:53:33.805Z,35.97
2022-07-31T14:55:06.819Z,35.05
2022-07-31T14:57:00.206Z,35.59
2022-07-31T14:58:34.302Z,35.17
2022-07-31T15:00:26.381Z,35.19
2022-07-31T15:02:00.420Z,35.04
2022-07-31T15:03:32.880Z,34.65
2022-07-31T15:06:38.695Z,35.21
2022-07-31T15:07:13.183Z,34.13
2022-07-31T15:08:50.242Z,35.02
2022-07-31T15:10:22.574Z,34.76
2022-07-31T15:12:01.202Z,34.18
2022-07-31T15:13:38.565Z,34.85
2022-07-31T15:15:11.735Z,34.55
2022-07-31T15:16:44.370Z,35.71
2022-07-31T15:18:24.585Z,34.87
2022-07-31T15:19:58.421Z,35.43
2022-07-31T15:21:30.701Z,35.42
2022-07-31T15:23:03.328Z,35.33
2022-07-31T15:24:35.730Z,35.51
2022-07-31T15:26:08.069Z,35.78
2022-07-31T15:27:40.357Z,36.14
2022-07-31T15:29:12.971Z,36.26
2022-07-31T15:30:45.606Z,36.53
2022-07-31T15:32:18.011Z,36.40
2022-07-31T15:33:50.815Z,35.93
2022-07-31T15:35:23.228Z,36.06
2022-07-31T15:36:55.472Z,35.94
2022-07-31T15:38:27.906Z,35.49
2022-07-31T15:40:02.981Z,36.15
2022-07-31T15:41:35.785Z,35.71
2022-07-31T15:43:08.165Z,36.70
2022-07-31T15:44:40.430Z,36.43
2022-07-31T15:46:12.991Z,36.69
2022-07-31T15:47:46.438Z,36.98
2022-07-31T15:49:18.799Z,37.04
2022-07-31T15:50:51.154Z,36.48
2022-07-31T15:52:23.204Z,37.28
2022-07-31T15:53:55.583Z,36.65
2022-07-31T15:55:32.125Z,37.98
2022-07-31T15:57:04.630Z,37.53
2022-07-31T15:58:37.328Z,37.65
2022-07-31T16:00:11.887Z,37.02
2022-07-31T16:01:44.035Z,37.07
2022-07-31T16:03:17.778Z,36.24
2022-07-31T16:04:52.898Z,35.87
2022-07-31T16:06:28.067Z,36.63
2022-07-31T16:08:31.473Z,36.38
2022-07-31T16:10:14.804Z,36.17
2022-07-31T16:12:04.602Z,36.37
2022-07-31T16:13:37.954Z,36.95
2022-07-31T16:15:12.926Z,36.96
2022-07-31T16:16:46.022Z,37.39
2022-07-31T16:18:18.902Z,37.85
2022-07-31T16:19:51.303Z,36.66
2022-07-31T16:21:23.774Z,36.53
2022-07-31T16:23:01.617Z,36.49
2022-07-31T16:24:36.930Z,36.94
2022-07-31T16:26:09.378Z,36.18
2022-07-31T16:27:41.684Z,35.98
2022-07-31T16:29:17.250Z,36.48
2022-07-31T16:30:51.060Z,36.37
2022-07-31T16:32:23.518Z,36.97
2022-07-31T16:33:55.972Z,36.36
2022-07-31T16:35:28.345Z,36.08
2022-07-31T16:37:00.452Z,35.15
2022-07-31T16:38:32.868Z,35.69
2022-07-31T16:40:06.581Z,35.29
2022-07-31T16:41:54.466Z,35.76
2022-07-31T16:43:50.348Z,35.86
2022-07-31T16:45:20.907Z,35.32
2022-07-31T16:46:55.003Z,35.30
2022-07-31T16:48:27.438Z,34.86
2022-07-31T16:49:59.878Z,34.49
2022-07-31T16:51:32.344Z,34.75
2022-07-31T16:53:04.560Z,34.21
2022-07-31T16:54:36.868Z,34.52
2022-07-31T16:56:10.379Z,34.52
2022-07-31T16:57:45.203Z,35.22
2022-07-31T16:59:17.410Z,35.25
2022-07-31T17:00:49.828Z,35.33
2022-07-31T17:02:22.099Z,35.29
2022-07-31T17:04:01.526Z,35.22
2022-07-31T17:05:35.491Z,34.84
2022-07-31T17:07:08.001Z,34.81
2022-07-31T17:08:40.456Z,34.89
2022-07-31T17:10:12.759Z,35.24
2022-07-31T17:11:52.688Z,35.42
2022-07-31T17:13:25.069Z,35.24
2022-07-31T17:14:57.650Z,36.04
2022-07-31T17:16:30.087Z,36.69
2022-07-31T17:18:02.512Z,36.43
2022-07-31T17:19:40.973Z,36.92
2022-07-31T17:21:17.926Z,37.15
2022-07-31T17:22:55.363Z,37.10
2022-07-31T17:24:27.480Z,37.29
2022-07-31T17:26:00.538Z,38.45
2022-07-31T17:27:33.673Z,38.02
2022-07-31T17:29:05.971Z,38.36
2022-07-31T17:30:39.417Z,39.16
2022-07-31T17:32:11.745Z,43.97
2022-07-31T17:33:59.262Z,45.59
2022-07-31T17:35:34.784Z,46.54
2022-07-31T17:37:07.956Z,46.12
2022-07-31T17:38:40.931Z,45.34
2022-07-31T17:40:41.819Z,43.58
2022-07-31T17:42:09.976Z,43.06
2022-07-31T17:43:49.977Z,43.03
2022-07-31T17:45:26.924Z,43.02
2022-07-31T17:47:20.623Z,42.44
2022-07-31T17:48:53.337Z,42.36
2022-07-31T17:50:25.736Z,42.67
2022-07-31T17:51:59.776Z,43.01
2022-07-31T17:53:55.135Z,42.78
2022-07-31T17:55:25.368Z,43.25
2022-07-31T17:56:57.881Z,43.53
2022-07-31T17:58:31.543Z,43.39
2022-07-31T18:00:07.177Z,44.41
2022-07-31T18:01:39.555Z,44.34
2022-07-31T18:03:11.999Z,46.17
2022-07-31T18:04:44.321Z,48.32
2022-07-31T18:06:16.575Z,47.38
2022-07-31T18:07:51.964Z,51.62
2022-07-31T18:09:25.179Z,52.62
2022-07-31T18:10:57.186Z,52.09
2022-07-31T18:12:29.414Z,54.08
2022-07-31T18:14:24.603Z,54.34
2022-07-31T18:15:57.178Z,55.95
2022-07-31T18:17:31.710Z,55.67
2022-07-31T18:19:04.776Z,56.08
2022-07-31T18:20:37.245Z,57.94
2022-07-31T18:22:09.915Z,57.77
2022-07-31T18:23:47.256Z,57.74
2022-07-31T18:25:20.093Z,59.33
2022-07-31T18:26:54.262Z,58.59
2022-07-31T18:28:26.900Z,58.53
2022-07-31T18:29:59.351Z,60.03
2022-07-31T18:31:35.404Z,59.34
2022-07-31T18:33:08.376Z,59.88
2022-07-31T18:34:40.685Z,60.49
2022-07-31T18:36:13.156Z,60.67
2022-07-31T18:37:45.633Z,60.82
2022-07-31T18:39:18.030Z,61.15
2022-07-31T18:40:50.538Z,61.76
2022-07-31T18:42:24.566Z,62.19
2022-07-31T18:43:57.779Z,61.09
2022-07-31T18:45:30.252Z,60.90
2022-07-31T18:47:02.631Z,62.33
2022-07-31T18:48:35.452Z,62.97
2022-07-31T18:50:58.152Z,63.18
2022-07-31T18:52:00.605Z,63.30
2022-07-31T18:53:33.838Z,63.95
2022-07-31T18:55:06.202Z,63.68
2022-07-31T18:56:38.598Z,64.16
2022-07-31T18:58:10.925Z,65.03
2022-07-31T18:59:43.512Z,64.96
2022-07-31T19:01:16.175Z,64.08
2022-07-31T19:02:48.609Z,64.49
2022-07-31T19:04:22.921Z,65.41
2022-07-31T19:05:55.103Z,65.35
2022-07-31T19:07:27.996Z,65.03
2022-07-31T19:09:00.452Z,65.60
2022-07-31T19:10:34.269Z,66.57
2022-07-31T19:12:08.492Z,66.46
2022-07-31T19:13:41.193Z,66.91
2022-07-31T19:15:13.858Z,66.85
2022-07-31T19:16:46.226Z,67.47
2022-07-31T19:18:27.885Z,67.59
2022-07-31T19:20:02.262Z,67.60
2022-07-31T19:21:43.868Z,67.80
2022-07-31T19:23:17.812Z,67.96
2022-07-31T19:24:51.153Z,68.82
2022-07-31T19:26:23.335Z,68.74
2022-07-31T19:27:55.714Z,68.65
2022-07-31T19:29:28.201Z,68.78
2022-07-31T19:31:00.941Z,69.13
2022-07-31T19:32:33.330Z,68.82
2022-07-31T19:34:05.552Z,68.66
2022-07-31T19:35:56.913Z,69.83
2022-07-31T19:37:30.371Z,70.12
2022-07-31T19:39:02.737Z,70.47
2022-07-31T20:22:24.274Z,71.86
2022-07-31T20:23:58.017Z,71.97
2022-07-31T20:25:30.089Z,72.10
2022-07-31T20:27:02.251Z,71.46
2022-07-31T20:28:34.681Z,69.73
2022-07-31T20:30:07.788Z,70.37
2022-07-31T20:31:39.906Z,70.20
2022-07-31T20:33:13.387Z,68.29
2022-07-31T20:34:45.707Z,67.52
2022-07-31T20:36:17.878Z,67.74
2022-07-31T20:37:50.176Z,68.21
2022-07-31T20:39:33.371Z,66.33
2022-07-31T20:41:06.912Z,65.36
2022-07-31T20:42:39.065Z,63.78
2022-07-31T20:44:11.183Z,62.27
2022-07-31T20:45:44.781Z,61.67
2022-07-31T20:47:18.101Z,61.51
2022-07-31T20:48:52.668Z,60.87
2022-07-31T20:50:25.502Z,60.32
2022-07-31T20:51:57.667Z,60.00
2022-07-31T20:53:31.090Z,59.53
2022-07-31T20:55:04.426Z,59.42
2022-07-31T20:56:36.397Z,59.23
2022-07-31T20:58:08.457Z,59.29
2022-07-31T20:59:40.537Z,59.20
2022-07-31T21:01:12.970Z,59.28
2022-07-31T21:02:46.905Z,59.22
2022-07-31T21:04:22.206Z,59.19
2022-07-31T21:05:54.333Z,59.23
2022-07-31T21:07:26.610Z,59.19
2022-07-31T21:08:58.734Z,59.03
2022-07-31T21:10:36.791Z,59.33
2022-07-31T21:12:10.078Z,59.18
2022-07-31T21:13:42.392Z,59.36